Time,TemperatureF,DewpointF,PressureIn,WindDirection,WindDirectionDegrees,WindSpeedMPH,WindSpeedGustMPH,Humidity,HourlyPrecipIn,Conditions,Clouds,dailyrainin,SoftwareType,DateUTC
2013-05-08 00:01:00,54.5,52.8,29.95,SSW,192,0.0,0.0,94,0.00,RA,,0.00,WeatherDisplay:10.37,2013-05-08 04:01:00,
2013-05-08 00:06:00,54.5,52.8,29.95,SSW,192,0.0,0.0,94,0.00,RA,,0.00,WeatherDisplay:10.37,2013-05-08 04:06:00,
2013-05-08 00:11:00,54.6,52.9,29.95,SSW,192,0.0,0.0,94,0.00,CLR,,0.00,WeatherDisplay:10.37,2013-05-08 04:11:00,
2013-05-08 00:16:00,54.5,52.8,29.95,SSW,192,0.0,0.0,94,0.00,CLR,,0.00,WeatherDisplay:10.37,2013-05-08 04:16:00,
2013-05-08 00:21:00,54.5,52.8,29.95,SSW,192,0.0,0.0,94,0.01,RA,,0.01,WeatherDisplay:10.37,2013-05-08 04:21:00,
2013-05-08 00:26:00,54.6,52.9,29.95,SSW,192,0.0,0.0,94,0.01,RA,,0.01,WeatherDisplay:10.37,2013-05-08 04:26:00,
2013-05-08 00:31:00,54.6,52.9,29.95,SSW,192,0.0,0.0,94,0.01,,,0.01,WeatherDisplay:10.37,2013-05-08 04:31:00,
2013-05-08 00:36:00,54.6,52.9,29.95,SSW,192,0.0,0.0,94,0.02,RA,,0.02,WeatherDisplay:10.37,2013-05-08 04:36:00,
2013-05-08 00:41:00,54.6,52.9,29.95,SSW,192,0.0,0.0,94,0.02,RA,,0.02,WeatherDisplay:10.37,2013-05-08 04:41:00,
2013-05-08 00:46:00,54.6,52.9,29.95,SSW,192,0.0,0.0,94,0.03,RA,,0.03,WeatherDisplay:10.37,2013-05-08 04:46:00,
2013-05-08 00:51:00,54.6,52.9,29.95,SSW,192,0.0,0.0,94,0.03,RA,,0.03,WeatherDisplay:10.37,2013-05-08 04:51:00,
2013-05-08 00:56:00,54.5,52.8,29.95,SSW,192,3.5,3.5,94,0.03,CLR,,0.03,WeatherDisplay:10.37,2013-05-08 04:56:00,
2013-05-08 01:01:00,54.5,52.8,29.94,SSW,192,0.0,0.0,94,0.03,CLR,,0.03,WeatherDisplay:10.37,2013-05-08 05:01:00,
2013-05-08 01:06:00,54.4,52.7,29.94,SSW,194,3.5,3.5,94,0.03,CLR,,0.03,WeatherDisplay:10.37,2013-05-08 05:06:00,
2013-05-08 01:11:00,54.4,52.7,29.94,SSW,194,2.0,2.0,94,0.03,CLR,,0.03,WeatherDisplay:10.37,2013-05-08 05:11:00,
2013-05-08 01:16:00,54.3,52.6,29.94,SSW,194,2.3,0.0,94,0.03,CLR,,0.03,WeatherDisplay:10.37,2013-05-08 05:16:00,
2013-05-08 01:21:00,54.2,52.5,29.94,SSW,194,3.5,3.5,94,0.02,CLR,,0.03,WeatherDisplay:10.37,2013-05-08 05:21:00,
2013-05-08 01:26:00,54.2,52.5,29.94,SSW,194,1.2,0.0,94,0.03,RA,,0.04,WeatherDisplay:10.37,2013-05-08 05:26:00,
2013-05-08 01:31:00,54.1,52.4,29.94,SSW,194,3.5,3.5,94,0.03,RA,,0.04,WeatherDisplay:10.37,2013-05-08 05:31:00,
2013-05-08 01:36:00,54.1,52.4,29.94,SSW,194,0.0,0.0,94,0.02,CLR,,0.04,WeatherDisplay:10.37,2013-05-08 05:36:00,
2013-05-08 01:41:00,54.1,52.4,29.94,SSW,194,0.0,0.0,94,0.02,CLR,,0.04,WeatherDisplay:10.37,2013-05-08 05:41:00,
2013-05-08 01:46:00,54.0,52.3,29.93,SSW,194,0.0,0.0,94,0.01,CLR,,0.04,WeatherDisplay:10.37,2013-05-08 05:46:00,
2013-05-08 01:51:00,54.0,52.3,29.93,SSW,194,0.0,0.0,94,0.01,CLR,,0.04,WeatherDisplay:10.37,2013-05-08 05:51:00,
2013-05-08 01:56:00,54.0,52.3,29.92,SSW,194,0.0,0.0,94,0.01,CLR,,0.04,WeatherDisplay:10.37,2013-05-08 05:56:00,
2013-05-08 02:01:00,54.0,52.3,29.92,SSW,194,0.0,0.0,94,0.01,CLR,,0.04,WeatherDisplay:10.37,2013-05-08 06:01:00,
2013-05-08 02:06:00,54.0,52.3,29.92,SSW,194,0.0,0.0,94,0.01,CLR,,0.04,WeatherDisplay:10.37,2013-05-08 06:06:00,
2013-05-08 02:11:00,53.9,52.2,29.92,SSW,194,0.0,0.0,94,0.01,CLR,,0.04,WeatherDisplay:10.37,2013-05-08 06:11:00,
2013-05-08 02:16:00,53.9,52.2,29.92,SSW,194,0.0,0.0,94,0.01,CLR,,0.04,WeatherDisplay:10.37,2013-05-08 06:16:00,
2013-05-08 02:21:00,53.8,52.1,29.92,SSW,194,0.0,0.0,94,0.01,CLR,,0.04,WeatherDisplay:10.37,2013-05-08 06:21:00,
2013-05-08 02:26:00,53.7,52.0,29.92,SSW,194,0.0,0.0,94,0.00,CLR,,0.04,WeatherDisplay:10.37,2013-05-08 06:26:00,
2013-05-08 02:31:00,53.6,51.9,29.91,SSW,194,0.0,0.0,94,0.00,CLR,,0.04,WeatherDisplay:10.37,2013-05-08 06:31:00,
2013-05-08 02:36:00,53.5,51.8,29.91,SSW,194,0.0,0.0,94,0.00,CLR,,0.04,WeatherDisplay:10.37,2013-05-08 06:36:00,
2013-05-08 02:41:00,53.5,51.8,29.92,SSW,194,0.0,0.0,94,0.00,CLR,,0.04,WeatherDisplay:10.37,2013-05-08 06:41:00,
2013-05-08 02:46:00,53.3,51.6,29.92,SSW,194,0.0,0.0,94,0.00,CLR,,0.04,WeatherDisplay:10.37,2013-05-08 06:46:00,
2013-05-08 02:51:00,53.2,51.5,29.91,SSW,194,0.0,0.0,94,0.00,CLR,,0.04,WeatherDisplay:10.37,2013-05-08 06:51:00,
2013-05-08 02:56:00,53.2,51.5,29.91,SSW,194,0.0,0.0,94,0.00,CLR,,0.04,WeatherDisplay:10.37,2013-05-08 06:56:00,
2013-05-08 03:01:00,53.2,51.5,29.91,SSW,194,0.0,0.0,94,0.00,CLR,,0.04,WeatherDisplay:10.37,2013-05-08 07:01:00,
2013-05-08 03:06:00,53.2,51.5,29.91,SSW,194,0.0,0.0,94,0.00,CLR,,0.04,WeatherDisplay:10.37,2013-05-08 07:06:00,
2013-05-08 03:11:00,53.2,51.5,29.91,SSW,194,0.0,0.0,94,0.00,CLR,,0.04,WeatherDisplay:10.37,2013-05-08 07:11:00,
2013-05-08 03:16:00,53.2,51.5,29.91,SSW,194,0.0,0.0,94,0.00,CLR,,0.04,WeatherDisplay:10.37,2013-05-08 07:16:00,
2013-05-08 03:21:00,53.2,51.5,29.92,SSW,194,0.0,0.0,94,0.00,CLR,,0.04,WeatherDisplay:10.37,2013-05-08 07:21:00,
2013-05-08 03:26:00,53.2,51.5,29.91,SSW,194,0.0,0.0,94,0.00,CLR,,0.04,WeatherDisplay:10.37,2013-05-08 07:26:00,
2013-05-08 03:31:00,53.2,51.5,29.92,SSW,194,0.0,0.0,94,0.00,CLR,,0.04,WeatherDisplay:10.37,2013-05-08 07:31:00,
2013-05-08 03:36:00,53.2,51.5,29.92,SSW,194,0.0,0.0,94,0.00,CLR,,0.04,WeatherDisplay:10.37,2013-05-08 07:36:00,
2013-05-08 03:41:00,53.1,51.4,29.92,SSW,194,0.0,0.0,94,0.00,CLR,,0.04,WeatherDisplay:10.37,2013-05-08 07:41:00,
2013-05-08 03:46:00,53.1,51.4,29.92,SSW,194,0.0,0.0,94,0.00,CLR,,0.04,WeatherDisplay:10.37,2013-05-08 07:46:00,
2013-05-08 03:51:00,53.0,51.3,29.92,SSW,194,0.0,0.0,94,0.00,CLR,,0.04,WeatherDisplay:10.37,2013-05-08 07:51:00,
2013-05-08 03:56:00,52.9,51.2,29.92,SSW,194,0.0,0.0,94,0.00,CLR,,0.04,WeatherDisplay:10.37,2013-05-08 07:56:00,
2013-05-08 04:01:00,52.8,51.1,29.92,SSW,194,0.0,0.0,94,0.00,CLR,,0.04,WeatherDisplay:10.37,2013-05-08 08:01:00,
2013-05-08 04:06:00,52.8,51.1,29.92,SSW,194,0.0,0.0,94,0.00,CLR,,0.04,WeatherDisplay:10.37,2013-05-08 08:06:00,
2013-05-08 04:11:00,52.6,50.9,29.92,SSW,194,0.0,0.0,94,0.00,CLR,,0.04,WeatherDisplay:10.37,2013-05-08 08:11:00,
2013-05-08 04:16:00,52.5,50.8,29.92,SSW,194,0.0,0.0,94,0.00,CLR,,0.04,WeatherDisplay:10.37,2013-05-08 08:16:00,
2013-05-08 04:21:00,52.5,50.8,29.92,SSW,194,0.0,0.0,94,0.00,CLR,,0.04,WeatherDisplay:10.37,2013-05-08 08:21:00,
2013-05-08 04:26:00,52.4,50.7,29.92,SSW,194,0.0,0.0,94,0.00,CLR,,0.04,WeatherDisplay:10.37,2013-05-08 08:26:00,
2013-05-08 04:31:00,52.4,50.7,29.92,SSW,194,0.0,0.0,94,0.00,CLR,,0.04,WeatherDisplay:10.37,2013-05-08 08:31:00,
2013-05-08 04:36:00,52.4,50.7,29.92,SSW,194,0.0,0.0,94,0.00,CLR,,0.04,WeatherDisplay:10.37,2013-05-08 08:36:00,
2013-05-08 04:41:00,52.3,50.6,29.92,SSW,194,0.0,0.0,94,0.00,CLR,,0.04,WeatherDisplay:10.37,2013-05-08 08:41:00,
2013-05-08 04:46:00,52.3,50.6,29.92,SSW,194,0.0,0.0,94,0.00,CLR,,0.04,WeatherDisplay:10.37,2013-05-08 08:46:00,
2013-05-08 04:51:00,52.2,50.5,29.92,SSW,194,0.0,0.0,94,0.00,CLR,,0.04,WeatherDisplay:10.37,2013-05-08 08:51:00,
2013-05-08 04:56:00,52.1,50.4,29.92,SSW,194,0.0,0.0,94,0.00,CLR,,0.04,WeatherDisplay:10.37,2013-05-08 08:56:00,
2013-05-08 05:01:00,52.0,50.3,29.92,SSW,194,0.0,0.0,94,0.00,CLR,,0.04,WeatherDisplay:10.37,2013-05-08 09:01:00,
2013-05-08 05:06:00,52.0,50.3,29.92,SSW,194,0.0,0.0,94,0.00,CLR,,0.04,WeatherDisplay:10.37,2013-05-08 09:06:00,
2013-05-08 05:11:00,52.0,50.3,29.93,SSW,194,0.0,0.0,94,0.00,CLR,,0.04,WeatherDisplay:10.37,2013-05-08 09:11:00,
2013-05-08 05:16:00,52.0,50.3,29.93,SSW,194,0.0,0.0,94,0.00,CLR,,0.04,WeatherDisplay:10.37,2013-05-08 09:16:00,
2013-05-08 05:21:00,52.0,50.3,29.93,SSW,194,0.0,0.0,94,0.00,CLR,,0.04,WeatherDisplay:10.37,2013-05-08 09:21:00,
2013-05-08 05:26:00,52.0,50.3,29.92,SSW,194,0.0,0.0,94,0.00,CLR,,0.04,WeatherDisplay:10.37,2013-05-08 09:26:00,
2013-05-08 05:31:00,51.9,50.2,29.92,SSW,194,0.0,0.0,94,0.00,CLR,,0.04,WeatherDisplay:10.37,2013-05-08 09:31:00,
2013-05-08 05:36:00,51.8,50.4,29.92,SSW,194,0.0,0.0,95,0.00,CLR,,0.04,WeatherDisplay:10.37,2013-05-08 09:36:00,
2013-05-08 05:41:00,51.8,50.1,29.93,SSW,194,0.0,0.0,94,0.00,CLR,,0.04,WeatherDisplay:10.37,2013-05-08 09:41:00,
2013-05-08 05:46:00,51.7,50.0,29.93,SSW,194,0.0,0.0,94,0.00,CLR,,0.04,WeatherDisplay:10.37,2013-05-08 09:46:00,
2013-05-08 05:51:00,51.6,49.9,29.92,SSW,194,0.0,0.0,94,0.00,CLR,,0.04,WeatherDisplay:10.37,2013-05-08 09:51:00,
2013-05-08 05:56:00,51.5,49.8,29.92,SSW,194,0.0,0.0,94,0.00,CLR,,0.04,WeatherDisplay:10.37,2013-05-08 09:56:00,
2013-05-08 06:01:00,51.4,50.0,29.93,SSW,194,0.0,0.0,95,0.00,CLR,,0.04,WeatherDisplay:10.37,2013-05-08 10:01:00,
2013-05-08 06:06:00,51.2,49.8,29.93,SSW,194,0.0,0.0,95,0.00,CLR,,0.04,WeatherDisplay:10.37,2013-05-08 10:06:00,
2013-05-08 06:11:00,51.1,49.4,29.93,SSW,194,0.0,0.0,94,0.00,CLR,,0.04,WeatherDisplay:10.37,2013-05-08 10:11:00,
2013-05-08 06:16:00,51.0,49.3,29.93,SSW,194,0.0,0.0,94,0.00,CLR,,0.04,WeatherDisplay:10.37,2013-05-08 10:16:00,
2013-05-08 06:21:00,50.9,49.2,29.93,SSW,194,3.5,3.5,94,0.00,CLR,,0.04,WeatherDisplay:10.37,2013-05-08 10:21:00,
2013-05-08 06:26:00,50.8,49.1,29.94,SSW,194,2.3,0.0,94,0.00,CLR,,0.04,WeatherDisplay:10.37,2013-05-08 10:26:00,
2013-05-08 06:31:00,50.9,49.5,29.94,SSW,194,0.0,0.0,95,0.00,CLR,,0.04,WeatherDisplay:10.37,2013-05-08 10:31:00,
2013-05-08 06:36:00,50.9,49.5,29.94,SSW,194,0.0,0.0,95,0.00,CLR,,0.04,WeatherDisplay:10.37,2013-05-08 10:36:00,
2013-05-08 06:41:00,50.9,49.5,29.94,SSW,194,0.0,0.0,95,0.00,CLR,,0.04,WeatherDisplay:10.37,2013-05-08 10:41:00,
2013-05-08 06:46:00,50.8,49.4,29.95,SSW,194,0.0,0.0,95,0.00,CLR,,0.04,WeatherDisplay:10.37,2013-05-08 10:46:00,
2013-05-08 06:51:00,50.8,49.4,29.95,SSW,194,0.0,0.0,95,0.00,CLR,,0.04,WeatherDisplay:10.37,2013-05-08 10:51:00,
2013-05-08 06:56:00,50.6,49.2,29.95,SSW,194,0.0,0.0,95,0.00,CLR,,0.04,WeatherDisplay:10.37,2013-05-08 10:56:00,
2013-05-08 07:01:00,50.4,48.7,29.95,SSW,194,0.0,0.0,94,0.00,CLR,,0.04,WeatherDisplay:10.37,2013-05-08 11:01:00,
2013-05-08 07:06:00,50.4,49.0,29.95,SSW,194,0.0,0.0,95,0.00,CLR,,0.04,WeatherDisplay:10.37,2013-05-08 11:06:00,
2013-05-08 07:11:00,50.3,48.9,29.96,SSW,194,0.0,0.0,95,0.00,CLR,,0.04,WeatherDisplay:10.37,2013-05-08 11:11:00,
2013-05-08 07:16:00,50.4,49.0,29.95,SW,229,0.0,0.0,95,0.00,CLR,,0.04,WeatherDisplay:10.37,2013-05-08 11:16:00,
2013-05-08 07:21:00,50.5,49.1,29.96,SW,229,0.0,0.0,95,0.00,CLR,,0.04,WeatherDisplay:10.37,2013-05-08 11:21:00,
2013-05-08 07:26:00,50.7,49.3,29.96,SSW,211,0.0,0.0,95,0.00,CLR,,0.04,WeatherDisplay:10.37,2013-05-08 11:26:00,
2013-05-08 07:31:00,50.9,49.5,29.96,SSW,210,0.0,0.0,95,0.00,CLR,,0.04,WeatherDisplay:10.37,2013-05-08 11:31:00,
2013-05-08 07:36:00,51.3,49.9,29.97,SSW,211,0.0,0.0,95,0.00,CLR,,0.04,WeatherDisplay:10.37,2013-05-08 11:36:00,
2013-05-08 07:41:00,51.6,50.2,29.97,SSW,211,0.0,0.0,95,0.00,CLR,,0.04,WeatherDisplay:10.37,2013-05-08 11:41:00,
2013-05-08 07:46:00,51.9,50.5,29.96,SW,233,0.0,0.0,95,0.00,CLR,,0.04,WeatherDisplay:10.37,2013-05-08 11:46:00,
2013-05-08 07:51:00,52.4,51.0,29.97,SW,233,0.0,0.0,95,0.00,CLR,,0.04,WeatherDisplay:10.37,2013-05-08 11:51:00,
2013-05-08 07:56:00,52.9,51.8,29.96,SW,232,0.0,0.0,96,0.00,CLR,,0.04,WeatherDisplay:10.37,2013-05-08 11:56:00,
2013-05-08 08:01:00,53.5,52.4,29.96,SW,227,0.0,0.0,96,0.00,CLR,,0.04,WeatherDisplay:10.37,2013-05-08 12:01:00,
2013-05-08 08:06:00,54.1,53.0,29.97,WSW,254,0.0,0.0,96,0.00,CLR,,0.04,WeatherDisplay:10.37,2013-05-08 12:06:00,
2013-05-08 08:11:00,54.3,53.2,29.97,WSW,254,0.0,0.0,96,0.00,CLR,,0.04,WeatherDisplay:10.37,2013-05-08 12:11:00,
2013-05-08 08:16:00,54.5,53.4,29.97,WSW,255,1.2,1.2,96,0.00,CLR,,0.04,WeatherDisplay:10.37,2013-05-08 12:16:00,
2013-05-08 08:21:00,54.5,53.4,29.98,WSW,255,3.5,3.5,96,0.00,CLR,,0.04,WeatherDisplay:10.37,2013-05-08 12:21:00,
2013-05-08 08:26:00,54.5,53.4,29.98,WNW,290,3.5,3.5,96,0.00,CLR,,0.04,WeatherDisplay:10.37,2013-05-08 12:26:00,
2013-05-08 08:31:00,54.6,53.2,29.97,WSW,254,0.0,0.0,95,0.00,CLR,,0.04,WeatherDisplay:10.37,2013-05-08 12:31:00,
2013-05-08 08:36:00,54.7,53.6,29.98,WSW,254,0.0,0.0,96,0.00,CLR,,0.04,WeatherDisplay:10.37,2013-05-08 12:36:00,
2013-05-08 08:41:00,54.8,53.7,29.98,SW,229,0.0,0.0,96,0.00,CLR,,0.04,WeatherDisplay:10.37,2013-05-08 12:41:00,
2013-05-08 08:46:00,54.8,53.7,29.98,ESE,122,1.2,0.0,96,0.00,CLR,,0.04,WeatherDisplay:10.37,2013-05-08 12:46:00,
2013-05-08 08:51:00,55.0,53.6,29.98,WSW,254,3.5,3.5,95,0.00,CLR,,0.04,WeatherDisplay:10.37,2013-05-08 12:51:00,
2013-05-08 08:56:00,55.2,53.8,29.98,WSW,254,1.2,0.0,95,0.00,CLR,,0.04,WeatherDisplay:10.37,2013-05-08 12:56:00,
2013-05-08 09:01:00,55.6,54.5,29.97,South,187,3.0,3.0,96,0.00,CLR,,0.04,WeatherDisplay:10.37,2013-05-08 13:01:00,
2013-05-08 09:06:00,56.0,54.9,29.98,SSW,204,0.0,0.0,96,0.00,CLR,,0.04,WeatherDisplay:10.37,2013-05-08 13:06:00,
2013-05-08 09:11:00,56.2,55.1,29.98,WSW,243,4.0,4.0,96,0.00,CLR,,0.04,WeatherDisplay:10.37,2013-05-08 13:11:00,
2013-05-08 09:16:00,56.2,54.8,29.98,WSW,249,5.0,5.0,95,0.00,CLR,,0.04,WeatherDisplay:10.37,2013-05-08 13:16:00,
2013-05-08 09:21:00,56.3,54.9,29.98,SW,232,0.0,0.0,95,0.00,CLR,,0.04,WeatherDisplay:10.37,2013-05-08 13:21:00,
2013-05-08 09:26:00,56.5,55.1,29.98,SW,232,0.0,0.0,95,0.00,CLR,,0.04,WeatherDisplay:10.37,2013-05-08 13:26:00,
2013-05-08 09:31:00,56.7,55.3,29.98,WSW,252,0.0,0.0,95,0.00,CLR,,0.04,WeatherDisplay:10.37,2013-05-08 13:31:00,
2013-05-08 09:36:00,57.0,55.6,29.98,WSW,252,0.0,0.0,95,0.00,CLR,,0.04,WeatherDisplay:10.37,2013-05-08 13:36:00,
2013-05-08 09:41:00,57.2,55.8,29.98,West,259,5.8,5.8,95,0.00,CLR,,0.04,WeatherDisplay:10.37,2013-05-08 13:41:00,
2013-05-08 09:46:00,57.3,55.9,29.98,WSW,254,3.5,3.5,95,0.00,CLR,,0.04,WeatherDisplay:10.37,2013-05-08 13:46:00,
2013-05-08 09:51:00,57.6,55.9,29.99,WSW,246,3.5,3.5,94,0.00,CLR,,0.04,WeatherDisplay:10.37,2013-05-08 13:51:00,
2013-05-08 09:56:00,57.7,56.0,29.99,West,260,4.6,4.6,94,0.00,CLR,,0.04,WeatherDisplay:10.37,2013-05-08 13:56:00,
2013-05-08 10:01:00,57.8,55.8,29.98,West,260,3.5,3.5,93,0.00,CLR,,0.04,WeatherDisplay:10.37,2013-05-08 14:01:00,
2013-05-08 10:06:00,58.1,56.1,29.98,West,260,0.0,0.6,93,0.00,CLR,,0.04,WeatherDisplay:10.37,2013-05-08 14:06:00,
2013-05-08 10:11:00,58.6,56.3,29.98,WSW,244,4.6,4.6,92,0.00,CLR,,0.04,WeatherDisplay:10.37,2013-05-08 14:11:00,
2013-05-08 10:16:00,59.0,56.7,29.98,West,261,3.5,3.5,92,0.00,CLR,,0.04,WeatherDisplay:10.37,2013-05-08 14:16:00,
2013-05-08 10:21:00,59.5,57.2,29.98,WSW,252,3.5,3.5,92,0.00,CLR,,0.04,WeatherDisplay:10.37,2013-05-08 14:21:00,
2013-05-08 10:26:00,60.0,57.4,29.98,WSW,252,0.0,0.0,91,0.00,CLR,,0.04,WeatherDisplay:10.37,2013-05-08 14:26:00,
2013-05-08 10:31:00,60.7,57.7,29.98,WSW,244,4.6,4.6,90,0.00,CLR,,0.04,WeatherDisplay:10.37,2013-05-08 14:31:00,
2013-05-08 10:36:00,61.5,58.2,29.98,WSW,244,4.0,4.0,89,0.00,CLR,,0.04,WeatherDisplay:10.37,2013-05-08 14:36:00,
2013-05-08 10:41:00,62.3,58.7,29.98,WSW,252,5.0,5.0,88,0.00,CLR,,0.04,WeatherDisplay:10.37,2013-05-08 14:41:00,
2013-05-08 10:46:00,62.8,58.2,29.98,WSW,249,6.9,6.9,85,0.00,CLR,,0.04,WeatherDisplay:10.37,2013-05-08 14:46:00,
2013-05-08 10:51:00,63.2,57.9,29.98,WSW,256,10.0,10.0,83,0.00,CLR,,0.04,WeatherDisplay:10.37,2013-05-08 14:51:00,
2013-05-08 10:56:00,63.6,58.3,29.98,WSW,250,5.8,5.8,83,0.00,CLR,,0.04,WeatherDisplay:10.37,2013-05-08 14:56:00,
2013-05-08 11:01:00,64.0,58.7,29.98,WSW,257,6.9,6.9,83,0.00,CLR,,0.04,WeatherDisplay:10.37,2013-05-08 15:01:00,
2013-05-08 11:06:00,64.0,58.4,29.98,WSW,254,6.9,6.9,82,0.00,CLR,,0.04,WeatherDisplay:10.37,2013-05-08 15:06:00,
2013-05-08 11:11:00,64.1,58.5,29.98,WSW,252,5.0,5.0,82,0.00,CLR,,0.04,WeatherDisplay:10.37,2013-05-08 15:11:00,
2013-05-08 11:16:00,64.1,58.5,29.98,WSW,252,5.8,5.8,82,0.00,CLR,,0.04,WeatherDisplay:10.37,2013-05-08 15:16:00,
2013-05-08 11:21:00,64.4,58.4,29.98,SW,222,9.2,9.2,81,0.00,CLR,,0.04,WeatherDisplay:10.37,2013-05-08 15:21:00,
2013-05-08 11:26:00,64.8,58.5,29.98,SSW,200,8.1,8.1,80,0.00,CLR,,0.04,WeatherDisplay:10.37,2013-05-08 15:26:00,
2013-05-08 11:31:00,65.6,60.0,29.98,SW,228,2.3,2.3,82,0.00,CLR,,0.04,WeatherDisplay:10.37,2013-05-08 15:31:00,
2013-05-08 11:36:00,66.0,58.9,29.97,WSW,258,8.1,8.1,78,0.00,CLR,,0.04,WeatherDisplay:10.37,2013-05-08 15:36:00,
2013-05-08 11:41:00,66.3,59.9,29.97,West,259,9.0,9.0,80,0.00,CLR,,0.04,WeatherDisplay:10.37,2013-05-08 15:41:00,
2013-05-08 11:46:00,66.7,59.3,29.97,SSW,205,8.1,8.1,77,0.00,CLR,,0.04,WeatherDisplay:10.37,2013-05-08 15:46:00,
2013-05-08 11:51:00,67.5,59.3,29.97,West,280,6.9,6.9,75,0.00,CLR,,0.04,WeatherDisplay:10.37,2013-05-08 15:51:00,
2013-05-08 11:56:00,67.8,58.8,29.97,WSW,244,5.0,5.0,73,0.00,CLR,,0.04,WeatherDisplay:10.37,2013-05-08 15:56:00,
2013-05-08 12:01:00,67.9,58.5,29.97,South,187,5.8,5.8,72,0.00,CLR,,0.04,WeatherDisplay:10.37,2013-05-08 16:01:00,
2013-05-08 12:06:00,67.8,58.8,29.97,SSW,192,0.0,0.0,73,0.00,CLR,,0.04,WeatherDisplay:10.37,2013-05-08 16:06:00,
2013-05-08 12:11:00,67.7,58.3,29.97,SSW,192,2.3,2.3,72,0.00,CLR,,0.04,WeatherDisplay:10.37,2013-05-08 16:11:00,
2013-05-08 12:16:00,67.7,59.5,29.97,SW,223,3.5,3.5,75,0.00,CLR,,0.04,WeatherDisplay:10.37,2013-05-08 16:16:00,
2013-05-08 12:21:00,67.6,58.6,29.97,WSW,244,0.0,0.0,73,0.00,CLR,,0.04,WeatherDisplay:10.37,2013-05-08 16:21:00,
2013-05-08 12:26:00,67.4,57.3,29.97,SW,219,7.0,7.0,70,0.00,CLR,,0.04,WeatherDisplay:10.37,2013-05-08 16:26:00,
2013-05-08 12:31:00,67.3,57.2,29.97,WSW,250,8.1,8.1,70,0.00,CLR,,0.04,WeatherDisplay:10.37,2013-05-08 16:31:00,
2013-05-08 12:36:00,67.2,57.9,29.97,WSW,257,5.8,5.8,72,0.00,CLR,,0.04,WeatherDisplay:10.37,2013-05-08 16:36:00,
2013-05-08 12:41:00,67.2,58.2,29.97,SW,234,7.0,7.0,73,0.00,CLR,,0.04,WeatherDisplay:10.37,2013-05-08 16:41:00,
2013-05-08 12:46:00,67.2,57.9,29.97,SW,226,11.5,11.5,72,0.00,CLR,,0.04,WeatherDisplay:10.37,2013-05-08 16:46:00,
2013-05-08 12:51:00,67.0,58.1,29.97,SW,222,6.9,6.9,73,0.00,CLR,,0.04,WeatherDisplay:10.37,2013-05-08 16:51:00,
2013-05-08 12:56:00,67.0,58.1,29.97,West,260,5.8,5.8,73,0.00,CLR,,0.04,WeatherDisplay:10.37,2013-05-08 16:56:00,
2013-05-08 13:01:00,67.0,58.8,29.97,West,259,6.0,6.0,75,0.00,CLR,,0.04,WeatherDisplay:10.37,2013-05-08 17:01:00,
2013-05-08 13:06:00,67.0,58.8,29.97,WSW,251,4.6,4.6,75,0.00,CLR,,0.04,WeatherDisplay:10.37,2013-05-08 17:06:00,
2013-05-08 13:11:00,67.1,59.3,29.96,WSW,250,5.0,5.0,76,0.00,CLR,,0.04,WeatherDisplay:10.37,2013-05-08 17:11:00,
2013-05-08 13:16:00,67.4,58.8,29.96,WSW,248,10.4,10.4,74,0.00,CLR,,0.04,WeatherDisplay:10.37,2013-05-08 17:16:00,
2013-05-08 13:21:00,67.7,58.7,29.96,West,263,10.4,10.4,73,0.00,CLR,,0.04,WeatherDisplay:10.37,2013-05-08 17:21:00,
2013-05-08 13:26:00,67.8,58.4,29.96,West,264,11.5,11.5,72,0.00,CLR,,0.04,WeatherDisplay:10.37,2013-05-08 17:26:00,
2013-05-08 13:31:00,67.8,59.2,29.96,WSW,248,9.2,9.2,74,0.00,CLR,,0.04,WeatherDisplay:10.37,2013-05-08 17:31:00,
2013-05-08 13:36:00,67.9,59.3,29.97,WSW,252,5.8,5.8,74,0.00,CLR,,0.04,WeatherDisplay:10.37,2013-05-08 17:36:00,
2013-05-08 13:41:00,67.7,58.3,29.97,WNW,288,10.4,10.4,72,0.00,CLR,,0.04,WeatherDisplay:10.37,2013-05-08 17:41:00,
2013-05-08 13:46:00,67.3,57.6,29.97,West,271,9.2,9.2,71,0.00,CLR,,0.04,WeatherDisplay:10.37,2013-05-08 17:46:00,
2013-05-08 13:51:00,67.0,57.3,29.96,WSW,255,6.9,6.9,71,0.00,CLR,,0.04,WeatherDisplay:10.37,2013-05-08 17:51:00,
2013-05-08 13:56:00,66.9,58.3,29.96,West,261,4.0,4.0,74,0.00,CLR,,0.04,WeatherDisplay:10.37,2013-05-08 17:56:00,
2013-05-08 14:01:00,67.0,58.4,29.96,WSW,257,4.6,4.6,74,0.00,CLR,,0.04,WeatherDisplay:10.37,2013-05-08 18:01:00,
2013-05-08 14:06:00,67.2,58.6,29.96,West,263,6.9,6.9,74,0.00,CLR,,0.04,WeatherDisplay:10.37,2013-05-08 18:06:00,
2013-05-08 14:11:00,67.5,58.2,29.96,WSW,253,7.0,7.0,72,0.00,CLR,,0.04,WeatherDisplay:10.37,2013-05-08 18:11:00,
2013-05-08 14:16:00,67.8,59.2,29.96,West,265,6.9,6.9,74,0.00,CLR,,0.04,WeatherDisplay:10.37,2013-05-08 18:16:00,
2013-05-08 14:21:00,68.6,59.6,29.96,West,277,11.0,11.0,73,0.00,CLR,,0.04,WeatherDisplay:10.37,2013-05-08 18:21:00,
2013-05-08 14:26:00,69.2,59.0,29.96,West,271,11.5,11.5,70,0.00,CLR,,0.04,WeatherDisplay:10.37,2013-05-08 18:26:00,
2013-05-08 14:31:00,69.4,58.0,29.96,WSW,240,13.8,13.8,67,0.00,CLR,,0.04,WeatherDisplay:10.37,2013-05-08 18:31:00,
2013-05-08 14:36:00,69.2,57.4,29.96,WSW,246,11.5,11.5,66,0.00,CLR,,0.04,WeatherDisplay:10.37,2013-05-08 18:36:00,
2013-05-08 14:41:00,69.1,57.7,29.96,West,281,10.4,10.4,67,0.00,CLR,,0.04,WeatherDisplay:10.37,2013-05-08 18:41:00,
2013-05-08 14:46:00,69.0,58.4,29.96,West,274,6.9,6.9,69,0.00,CLR,,0.04,WeatherDisplay:10.37,2013-05-08 18:46:00,
2013-05-08 14:51:00,68.9,57.9,29.96,West,259,9.2,9.2,68,0.00,CLR,,0.04,WeatherDisplay:10.37,2013-05-08 18:51:00,
2013-05-08 14:56:00,68.8,57.8,29.96,West,273,6.9,6.9,68,0.00,CLR,,0.04,WeatherDisplay:10.37,2013-05-08 18:56:00,
2013-05-08 15:01:00,68.8,58.6,29.96,West,274,3.5,3.5,70,0.00,CLR,,0.04,WeatherDisplay:10.37,2013-05-08 19:01:00,
2013-05-08 15:06:00,68.9,57.9,29.96,West,260,10.4,10.4,68,0.00,CLR,,0.04,WeatherDisplay:10.37,2013-05-08 19:06:00,
2013-05-08 15:11:00,69.0,57.6,29.95,West,267,7.0,7.0,67,0.00,CLR,,0.04,WeatherDisplay:10.37,2013-05-08 19:11:00,
2013-05-08 15:16:00,69.2,58.2,29.95,WSW,252,5.8,5.8,68,0.00,CLR,,0.04,WeatherDisplay:10.37,2013-05-08 19:16:00,
2013-05-08 15:21:00,69.3,57.5,29.95,West,260,11.5,11.5,66,0.00,CLR,,0.04,WeatherDisplay:10.37,2013-05-08 19:21:00,
2013-05-08 15:26:00,69.4,58.4,29.95,West,268,6.9,6.9,68,0.00,CLR,,0.04,WeatherDisplay:10.37,2013-05-08 19:26:00,
2013-05-08 15:31:00,69.8,58.3,29.95,West,271,9.2,9.2,67,0.00,CLR,,0.04,WeatherDisplay:10.37,2013-05-08 19:31:00,
2013-05-08 15:36:00,70.5,57.7,29.95,WSW,242,11.5,11.5,64,0.00,CLR,,0.04,WeatherDisplay:10.37,2013-05-08 19:36:00,
2013-05-08 15:41:00,71.0,59.1,29.95,West,270,6.0,6.0,66,0.00,CLR,,0.04,WeatherDisplay:10.37,2013-05-08 19:41:00,
2013-05-08 15:46:00,71.4,58.1,29.95,WNW,283,6.9,6.9,63,0.00,CLR,,0.04,WeatherDisplay:10.37,2013-05-08 19:46:00,
2013-05-08 15:51:00,72.0,59.6,29.94,SW,226,6.9,6.9,65,0.00,CLR,,0.04,WeatherDisplay:10.37,2013-05-08 19:51:00,
2013-05-08 15:56:00,72.5,59.6,29.94,West,261,12.0,12.0,64,0.00,CLR,,0.04,WeatherDisplay:10.37,2013-05-08 19:56:00,
2013-05-08 16:01:00,72.6,58.4,29.94,SW,227,11.5,11.5,61,0.00,CLR,,0.04,WeatherDisplay:10.37,2013-05-08 20:01:00,
2013-05-08 16:06:00,72.4,58.6,29.94,West,261,9.2,9.2,62,0.00,CLR,,0.04,WeatherDisplay:10.37,2013-05-08 20:06:00,
2013-05-08 16:11:00,71.9,58.2,29.94,WSW,253,13.8,13.8,62,0.00,CLR,,0.04,WeatherDisplay:10.37,2013-05-08 20:11:00,
2013-05-08 16:16:00,71.4,57.7,29.94,WSW,252,11.5,11.5,62,0.00,CLR,,0.04,WeatherDisplay:10.37,2013-05-08 20:16:00,
2013-05-08 16:21:00,71.1,57.9,29.94,WSW,254,10.4,10.4,63,0.00,CLR,,0.04,WeatherDisplay:10.37,2013-05-08 20:21:00,
2013-05-08 16:26:00,70.7,57.9,29.94,West,264,11.5,11.5,64,0.00,CLR,,0.04,WeatherDisplay:10.37,2013-05-08 20:26:00,
2013-05-08 16:31:00,70.7,58.8,29.94,WSW,252,8.1,8.1,66,0.00,CLR,,0.04,WeatherDisplay:10.37,2013-05-08 20:31:00,
2013-05-08 16:36:00,70.8,57.6,29.93,West,271,11.5,11.5,63,0.00,CLR,,0.04,WeatherDisplay:10.37,2013-05-08 20:36:00,
2013-05-08 16:41:00,70.8,58.4,29.94,WNW,286,6.9,6.9,65,0.00,CLR,,0.04,WeatherDisplay:10.37,2013-05-08 20:41:00,
2013-05-08 16:46:00,71.0,57.8,29.93,WSW,253,6.9,6.9,63,0.00,CLR,,0.04,WeatherDisplay:10.37,2013-05-08 20:46:00,
2013-05-08 16:51:00,71.3,58.9,29.93,WSW,254,9.0,9.0,65,0.00,CLR,,0.04,WeatherDisplay:10.37,2013-05-08 20:51:00,
2013-05-08 16:56:00,71.2,58.4,29.93,West,261,3.5,3.5,64,0.00,CLR,,0.04,WeatherDisplay:10.37,2013-05-08 20:56:00,
2013-05-08 17:01:00,71.0,58.6,29.93,WSW,253,6.0,6.0,65,0.00,CLR,,0.04,WeatherDisplay:10.37,2013-05-08 21:01:00,
2013-05-08 17:06:00,70.8,58.0,29.93,WSW,246,6.9,6.9,64,0.00,CLR,,0.04,WeatherDisplay:10.37,2013-05-08 21:06:00,
2013-05-08 17:11:00,70.5,57.7,29.94,West,271,5.8,5.8,64,0.00,CLR,,0.04,WeatherDisplay:10.37,2013-05-08 21:11:00,
2013-05-08 17:16:00,70.3,58.4,29.94,West,273,3.5,0.0,66,0.00,CLR,,0.04,WeatherDisplay:10.37,2013-05-08 21:16:00,
2013-05-08 17:21:00,70.0,57.7,29.94,West,271,5.8,5.8,65,0.00,CLR,,0.04,WeatherDisplay:10.37,2013-05-08 21:21:00,
2013-05-08 17:26:00,69.8,57.5,29.94,West,273,4.6,4.6,65,0.00,CLR,,0.04,WeatherDisplay:10.37,2013-05-08 21:26:00,
2013-05-08 17:31:00,69.7,57.8,29.94,WSW,258,3.5,3.5,66,0.00,CLR,,0.04,WeatherDisplay:10.37,2013-05-08 21:31:00,
2013-05-08 17:36:00,69.6,58.6,29.94,West,267,1.2,1.2,68,0.00,CLR,,0.04,WeatherDisplay:10.37,2013-05-08 21:36:00,
2013-05-08 17:41:00,69.5,58.5,29.94,WSW,257,3.5,3.5,68,0.00,CLR,,0.04,WeatherDisplay:10.37,2013-05-08 21:41:00,
2013-05-08 17:46:00,69.3,58.7,29.94,West,262,3.5,3.5,69,0.00,CLR,,0.04,WeatherDisplay:10.37,2013-05-08 21:46:00,
2013-05-08 17:51:00,69.3,59.1,29.94,West,262,1.2,0.0,70,0.00,CLR,,0.04,WeatherDisplay:10.37,2013-05-08 21:51:00,
2013-05-08 17:56:00,69.5,59.3,29.94,West,261,3.5,0.0,70,0.00,CLR,,0.04,WeatherDisplay:10.37,2013-05-08 21:56:00,
2013-05-08 18:01:00,69.9,58.9,29.94,West,279,3.5,3.5,68,0.00,CLR,,0.04,WeatherDisplay:10.37,2013-05-08 22:01:00,
2013-05-08 18:06:00,70.2,59.1,29.94,West,270,3.5,3.5,68,0.00,CLR,,0.04,WeatherDisplay:10.37,2013-05-08 22:06:00,
2013-05-08 18:11:00,70.4,60.1,29.94,West,271,2.3,2.3,70,0.00,CLR,,0.04,WeatherDisplay:10.37,2013-05-08 22:11:00,
2013-05-08 18:16:00,70.6,60.3,29.94,West,270,0.0,0.1,70,0.00,CLR,,0.04,WeatherDisplay:10.37,2013-05-08 22:16:00,
2013-05-08 18:21:00,70.9,59.4,29.94,West,263,4.6,4.6,67,0.00,CLR,,0.04,WeatherDisplay:10.37,2013-05-08 22:21:00,
2013-05-08 18:26:00,71.1,60.0,29.94,West,263,3.5,3.5,68,0.00,CLR,,0.04,WeatherDisplay:10.37,2013-05-08 22:26:00,
2013-05-08 18:31:00,71.3,60.2,29.93,WNW,290,4.0,4.0,68,0.00,CLR,,0.04,WeatherDisplay:10.37,2013-05-08 22:31:00,
2013-05-08 18:36:00,71.6,60.1,29.94,WNW,282,3.5,3.5,67,0.00,CLR,,0.04,WeatherDisplay:10.37,2013-05-08 22:36:00,
2013-05-08 18:41:00,71.7,60.6,29.94,WNW,285,2.0,0.0,68,0.00,CLR,,0.04,WeatherDisplay:10.37,2013-05-08 22:41:00,
2013-05-08 18:46:00,71.2,57.5,29.94,West,279,6.9,6.9,62,0.00,CLR,,0.04,WeatherDisplay:10.37,2013-05-08 22:46:00,
2013-05-08 18:51:00,70.7,58.8,29.93,SSW,199,0.0,0.0,66,0.00,CLR,,0.04,WeatherDisplay:10.37,2013-05-08 22:51:00,
2013-05-08 18:56:00,70.2,58.7,29.93,SW,236,0.0,0.0,67,0.00,CLR,,0.04,WeatherDisplay:10.37,2013-05-08 22:56:00,
2013-05-08 19:01:00,69.9,58.9,29.94,SW,236,0.0,0.0,68,0.00,CLR,,0.04,WeatherDisplay:10.37,2013-05-08 23:01:00,
2013-05-08 19:06:00,69.6,59.0,29.94,WNW,298,2.3,2.3,69,0.00,CLR,,0.04,WeatherDisplay:10.37,2013-05-08 23:06:00,
2013-05-08 19:11:00,69.2,59.0,29.94,WNW,301,0.0,0.0,70,0.00,CLR,,0.04,WeatherDisplay:10.37,2013-05-08 23:11:00,
2013-05-08 19:16:00,68.9,59.1,29.95,NW,321,1.2,0.0,71,0.00,CLR,,0.04,WeatherDisplay:10.37,2013-05-08 23:16:00,
2013-05-08 19:21:00,68.5,59.1,29.95,NNE,24,1.0,0.0,72,0.00,CLR,,0.04,WeatherDisplay:10.37,2013-05-08 23:21:00,
2013-05-08 19:26:00,68.2,58.8,29.95,NNE,24,2.3,2.3,72,0.00,CLR,,0.04,WeatherDisplay:10.37,2013-05-08 23:26:00,
2013-05-08 19:31:00,67.9,58.9,29.95,WSW,250,0.0,0.0,73,0.00,CLR,,0.04,WeatherDisplay:10.37,2013-05-08 23:31:00,
2013-05-08 19:36:00,67.7,58.3,29.95,WSW,250,0.0,0.0,72,0.00,CLR,,0.04,WeatherDisplay:10.37,2013-05-08 23:36:00,
2013-05-08 19:41:00,67.4,57.7,29.95,WSW,254,4.6,4.6,71,0.00,CLR,,0.04,WeatherDisplay:10.37,2013-05-08 23:41:00,
2013-05-08 19:46:00,67.1,57.4,29.96,WSW,254,4.6,4.6,71,0.00,CLR,,0.04,WeatherDisplay:10.37,2013-05-08 23:46:00,
2013-05-08 19:51:00,66.9,56.4,29.96,WNW,284,6.9,6.9,69,0.00,CLR,,0.04,WeatherDisplay:10.37,2013-05-08 23:51:00,
2013-05-08 19:56:00,66.9,56.4,29.96,West,274,5.0,5.0,69,0.00,CLR,,0.04,WeatherDisplay:10.37,2013-05-08 23:56:00,
2013-05-08 20:01:00,66.8,56.3,29.96,West,277,3.5,3.5,69,0.00,CLR,,0.04,WeatherDisplay:10.37,2013-05-09 00:01:00,
2013-05-08 20:06:00,66.8,56.3,29.97,West,275,2.0,2.0,69,0.00,CLR,,0.04,WeatherDisplay:10.37,2013-05-09 00:06:00,
2013-05-08 20:11:00,66.7,55.8,29.97,West,277,0.0,0.0,68,0.00,CLR,,0.04,WeatherDisplay:10.37,2013-05-09 00:11:00,
2013-05-08 20:16:00,66.6,56.1,29.97,NW,314,0.0,0.0,69,0.00,CLR,,0.04,WeatherDisplay:10.37,2013-05-09 00:16:00,
2013-05-08 20:21:00,66.4,56.3,29.97,NW,314,0.0,0.0,70,0.00,CLR,,0.04,WeatherDisplay:10.37,2013-05-09 00:21:00,
2013-05-08 20:26:00,66.2,55.7,29.98,NW,314,0.0,0.0,69,0.00,CLR,,0.04,WeatherDisplay:10.37,2013-05-09 00:26:00,
2013-05-08 20:31:00,66.0,55.5,29.98,NW,314,0.0,0.0,69,0.00,CLR,,0.04,WeatherDisplay:10.37,2013-05-09 00:31:00,
2013-05-08 20:36:00,65.9,55.4,29.98,NW,314,0.0,0.0,69,0.00,CLR,,0.04,WeatherDisplay:10.37,2013-05-09 00:36:00,
2013-05-08 20:41:00,65.8,55.7,29.98,NW,314,0.0,0.0,70,0.00,CLR,,0.04,WeatherDisplay:10.37,2013-05-09 00:41:00,
2013-05-08 20:46:00,65.8,55.7,29.98,NW,314,0.0,0.0,70,0.00,CLR,,0.04,WeatherDisplay:10.37,2013-05-09 00:46:00,
2013-05-08 20:51:00,65.5,55.8,29.98,NNE,13,3.5,3.5,71,0.00,CLR,,0.04,WeatherDisplay:10.37,2013-05-09 00:51:00,
2013-05-08 20:56:00,65.1,55.8,29.98,NNE,15,0.0,0.0,72,0.00,CLR,,0.04,WeatherDisplay:10.37,2013-05-09 00:56:00,
2013-05-08 21:01:00,65.0,56.1,29.99,NNE,15,0.0,0.0,73,0.00,CLR,,0.04,WeatherDisplay:10.37,2013-05-09 01:01:00,
2013-05-08 21:06:00,64.9,56.4,29.99,NNE,16,2.3,2.3,74,0.00,CLR,,0.04,WeatherDisplay:10.37,2013-05-09 01:06:00,
2013-05-08 21:11:00,64.8,56.7,29.99,NNE,16,0.0,0.1,75,0.00,CLR,,0.04,WeatherDisplay:10.37,2013-05-09 01:11:00,
2013-05-08 21:16:00,64.6,56.9,29.99,NNE,16,0.0,0.0,76,0.00,CLR,,0.04,WeatherDisplay:10.37,2013-05-09 01:16:00,
2013-05-08 21:21:00,64.4,57.0,29.99,NNE,15,0.0,0.0,77,0.00,CLR,,0.04,WeatherDisplay:10.37,2013-05-09 01:21:00,
2013-05-08 21:26:00,64.3,57.3,29.99,NNE,16,0.0,0.0,78,0.00,CLR,,0.04,WeatherDisplay:10.37,2013-05-09 01:26:00,
2013-05-08 21:31:00,64.1,57.1,29.99,NNE,16,0.0,0.0,78,0.00,CLR,,0.04,WeatherDisplay:10.37,2013-05-09 01:31:00,
2013-05-08 21:37:00,63.9,57.3,30.00,NNE,16,0.0,0.0,79,0.00,CLR,,0.04,WeatherDisplay:10.37,2013-05-09 01:37:00,
2013-05-08 21:42:00,63.7,57.4,30.00,NNE,15,0.0,0.0,80,0.00,CLR,,0.04,WeatherDisplay:10.37,2013-05-09 01:42:00,
2013-05-08 21:47:00,63.5,57.2,30.00,NNE,16,0.0,0.0,80,0.00,CLR,,0.04,WeatherDisplay:10.37,2013-05-09 01:47:00,
2013-05-08 21:52:00,63.3,57.0,30.00,NNE,16,0.0,0.0,80,0.00,CLR,,0.04,WeatherDisplay:10.37,2013-05-09 01:52:00,
2013-05-08 21:57:00,63.2,57.3,30.00,NNE,15,0.0,0.0,81,0.00,CLR,,0.04,WeatherDisplay:10.37,2013-05-09 01:57:00,
2013-05-08 22:02:00,63.0,57.4,30.00,NNE,15,0.0,0.0,82,0.00,CLR,,0.04,WeatherDisplay:10.37,2013-05-09 02:02:00,
2013-05-08 22:07:00,62.8,57.2,30.00,NNE,16,0.0,0.0,82,0.00,CLR,,0.04,WeatherDisplay:10.37,2013-05-09 02:07:00,
2013-05-08 22:12:00,62.7,57.1,30.00,NNE,16,0.0,0.0,82,0.00,CLR,,0.04,WeatherDisplay:10.37,2013-05-09 02:12:00,
2013-05-08 22:17:00,62.6,57.4,30.00,NNE,15,0.0,0.0,83,0.00,CLR,,0.04,WeatherDisplay:10.37,2013-05-09 02:17:00,
2013-05-08 22:22:00,62.4,57.2,30.00,NNE,16,0.0,0.0,83,0.00,CLR,,0.04,WeatherDisplay:10.37,2013-05-09 02:22:00,
2013-05-08 22:27:00,62.2,57.0,30.00,NNE,16,0.0,0.0,83,0.00,CLR,,0.04,WeatherDisplay:10.37,2013-05-09 02:27:00,
2013-05-08 22:32:00,62.1,56.9,30.00,NNE,15,0.0,0.0,83,0.00,CLR,,0.04,WeatherDisplay:10.37,2013-05-09 02:32:00,
2013-05-08 22:37:00,62.1,57.2,30.00,NNE,16,0.0,0.0,84,0.00,CLR,,0.04,WeatherDisplay:10.37,2013-05-09 02:37:00,
2013-05-08 22:42:00,61.9,57.0,30.01,NNE,16,0.0,0.0,84,0.00,CLR,,0.04,WeatherDisplay:10.37,2013-05-09 02:42:00,
2013-05-08 22:47:00,61.8,56.9,30.01,NNE,16,0.0,0.0,84,0.00,CLR,,0.04,WeatherDisplay:10.37,2013-05-09 02:47:00,
2013-05-08 22:52:00,61.7,56.8,30.00,NNE,16,0.0,0.0,84,0.00,CLR,,0.04,WeatherDisplay:10.37,2013-05-09 02:52:00,
2013-05-08 22:57:00,61.4,56.8,30.00,NNE,15,0.0,0.0,85,0.00,CLR,,0.04,WeatherDisplay:10.37,2013-05-09 02:57:00,
2013-05-08 23:02:00,61.3,56.8,30.00,NNE,16,0.0,0.0,85,0.00,CLR,,0.04,WeatherDisplay:10.37,2013-05-09 03:02:00,
2013-05-08 23:07:00,61.0,56.8,30.00,NNE,16,0.0,0.0,86,0.00,CLR,,0.04,WeatherDisplay:10.37,2013-05-09 03:07:00,
2013-05-08 23:12:00,60.7,56.5,30.00,NNE,16,0.0,0.0,86,0.00,CLR,,0.04,WeatherDisplay:10.37,2013-05-09 03:12:00,
2013-05-08 23:17:00,60.4,56.2,30.00,NNE,15,0.0,0.0,86,0.00,CLR,,0.04,WeatherDisplay:10.37,2013-05-09 03:17:00,
2013-05-08 23:22:00,60.1,55.9,30.00,NNE,16,0.0,0.0,86,0.00,CLR,,0.04,WeatherDisplay:10.37,2013-05-09 03:22:00,
2013-05-08 23:27:00,59.8,55.6,30.00,NNE,16,0.0,0.0,86,0.00,CLR,,0.04,WeatherDisplay:10.37,2013-05-09 03:27:00,
2013-05-08 23:32:00,59.6,55.7,30.00,NNE,15,0.0,0.0,87,0.00,CLR,,0.04,WeatherDisplay:10.37,2013-05-09 03:32:00,
2013-05-08 23:37:00,59.4,55.8,30.00,NNE,16,0.0,0.0,88,0.00,CLR,,0.04,WeatherDisplay:10.37,2013-05-09 03:37:00,
2013-05-08 23:42:00,59.3,55.7,30.00,NNE,15,0.0,0.0,88,0.00,CLR,,0.04,WeatherDisplay:10.37,2013-05-09 03:42:00,
2013-05-08 23:47:00,59.0,55.4,30.00,NNE,16,0.0,0.0,88,0.00,CLR,,0.04,WeatherDisplay:10.37,2013-05-09 03:47:00,
2013-05-08 23:52:00,59.0,55.4,30.00,NNE,16,0.0,0.0,88,0.00,CLR,,0.04,WeatherDisplay:10.37,2013-05-09 03:52:00,
2013-05-08 23:57:00,59.0,55.8,30.00,NNE,15,0.0,0.0,89,0.00,CLR,,0.04,WeatherDisplay:10.37,2013-05-09 03:57:00,